createdAt,value
2018-05-27T00:01:42.719Z,20.43
2018-05-27T00:04:10.145Z,21.13
2018-05-27T00:06:37.505Z,22.23
2018-05-27T00:09:05.754Z,23.00
2018-05-27T00:11:33.176Z,23.00
2018-05-27T00:14:00.612Z,21.30
2018-05-27T00:16:28.017Z,21.20
2018-05-27T00:18:55.453Z,21.20
2018-05-27T00:21:22.872Z,19.77
2018-05-27T00:23:50.244Z,20.00
2018-05-27T00:26:17.667Z,19.40
2018-05-27T00:28:45.080Z,22.10
2018-05-27T00:31:12.492Z,22.00
2018-05-27T00:33:39.890Z,21.83
2018-05-27T00:36:07.320Z,19.60
2018-05-27T00:38:34.682Z,21.20
2018-05-27T00:41:02.081Z,20.33
2018-05-27T00:43:29.488Z,20.13
2018-05-27T00:45:56.920Z,18.93
2018-05-27T00:48:24.317Z,22.40
2018-05-27T00:50:51.702Z,18.90
2018-05-27T00:53:19.091Z,23.40
2018-05-27T00:55:46.466Z,24.90
2018-05-27T00:58:13.827Z,20.57
2018-05-27T01:00:41.252Z,23.63
2018-05-27T01:03:08.639Z,20.43
2018-05-27T01:05:36.029Z,26.90
2018-05-27T01:08:03.544Z,21.57
2018-05-27T01:10:30.943Z,19.60
2018-05-27T01:12:58.372Z,20.93
2018-05-27T01:15:25.763Z,20.80
2018-05-27T01:17:53.134Z,18.87
2018-05-27T01:20:20.553Z,20.43
2018-05-27T01:22:47.961Z,22.03
2018-05-27T01:25:15.470Z,19.40
2018-05-27T01:27:42.897Z,22.03
2018-05-27T01:30:10.254Z,18.47
2018-05-27T01:32:37.671Z,20.10
2018-05-27T01:35:05.057Z,24.23
2018-05-27T01:37:32.505Z,20.93
2018-05-27T01:39:59.858Z,20.67
2018-05-27T01:42:27.254Z,22.67
2018-05-27T01:44:54.669Z,24.20
2018-05-27T01:47:22.040Z,23.20
2018-05-27T01:49:49.434Z,24.50
2018-05-27T01:52:16.835Z,23.63
2018-05-27T01:54:44.226Z,22.87
2018-05-27T01:57:11.608Z,22.60
2018-05-27T01:59:39.019Z,24.43
2018-05-27T02:02:06.434Z,24.83
2018-05-27T02:04:33.820Z,25.93
2018-05-27T02:07:01.256Z,26.17
2018-05-27T02:09:28.676Z,29.70
2018-05-27T02:11:56.063Z,29.90
2018-05-27T02:14:23.477Z,29.03
2018-05-27T02:16:50.843Z,29.03
2018-05-27T02:19:18.287Z,30.60
2018-05-27T02:21:45.687Z,32.37
2018-05-27T02:24:13.069Z,32.20
2018-05-27T02:26:40.456Z,29.90
2018-05-27T02:29:07.884Z,28.80
2018-05-27T02:31:35.235Z,30.37
2018-05-27T02:34:02.683Z,32.07
2018-05-27T02:36:30.108Z,28.00
2018-05-27T02:38:57.518Z,33.67
2018-05-27T02:41:24.978Z,28.20
2018-05-27T02:43:52.400Z,32.13
2018-05-27T02:46:19.847Z,29.53
2018-05-27T02:48:47.269Z,32.60
2018-05-27T02:51:15.291Z,32.67
2018-05-27T02:53:42.665Z,32.93
2018-05-27T02:56:10.067Z,32.57
2018-05-27T02:58:37.478Z,35.33
2018-05-27T03:01:04.900Z,35.00
2018-05-27T03:03:32.255Z,33.90
2018-05-27T03:05:59.673Z,36.73
2018-05-27T03:08:27.201Z,33.77
2018-05-27T03:10:54.563Z,32.40
2018-05-27T03:13:21.971Z,33.67
2018-05-27T03:15:49.370Z,35.00
2018-05-27T03:18:16.856Z,32.57
2018-05-27T03:20:44.253Z,32.40
2018-05-27T03:23:11.677Z,31.17
2018-05-27T03:25:39.124Z,34.50
2018-05-27T03:28:06.556Z,32.67
2018-05-27T03:30:33.919Z,31.07
2018-05-27T03:33:01.280Z,33.20
2018-05-27T03:35:28.821Z,32.70
2018-05-27T03:37:56.203Z,30.93
2018-05-27T03:40:23.621Z,36.93
2018-05-27T03:42:50.986Z,30.83
2018-05-27T03:45:18.400Z,37.63
2018-05-27T03:47:45.783Z,31.20
2018-05-27T03:50:13.187Z,36.60
2018-05-27T03:52:40.542Z,33.00
2018-05-27T03:55:07.891Z,35.80
2018-05-27T03:57:35.288Z,31.50
2018-05-27T04:00:02.638Z,32.23
2018-05-27T04:02:30.055Z,33.07
2018-05-27T04:05:03.307Z,32.13
2018-05-27T04:07:36.537Z,33.20
2018-05-27T04:10:04.005Z,32.67
2018-05-27T04:12:31.374Z,30.47
2018-05-27T04:14:58.768Z,32.20
2018-05-27T04:17:26.175Z,31.90
2018-05-27T04:19:53.575Z,34.23
2018-05-27T04:22:20.963Z,33.27
2018-05-27T04:24:48.320Z,32.47
2018-05-27T04:27:15.709Z,34.67
2018-05-27T04:29:43.122Z,30.90
2018-05-27T04:32:10.481Z,32.57
2018-05-27T04:34:37.871Z,29.90
2018-05-27T04:37:05.254Z,32.83
2018-05-27T04:39:32.651Z,36.60
2018-05-27T04:42:00.041Z,33.87
2018-05-27T04:44:27.398Z,33.43
2018-05-27T04:46:54.782Z,33.03
2018-05-27T04:49:22.151Z,33.03
2018-05-27T04:51:49.535Z,34.17
2018-05-27T04:54:16.883Z,34.47
2018-05-27T04:56:44.369Z,34.30
2018-05-27T04:59:13.711Z,35.37
2018-05-27T05:01:41.931Z,32.93
2018-05-27T05:04:09.299Z,34.67
2018-05-27T05:06:36.689Z,36.57
2018-05-27T05:09:04.810Z,33.10
2018-05-27T05:11:32.255Z,40.90
2018-05-27T05:13:59.676Z,36.77
2018-05-27T05:16:27.055Z,37.50
2018-05-27T05:18:54.485Z,37.23
2018-05-27T05:21:21.881Z,38.27
2018-05-27T05:23:49.307Z,37.37
2018-05-27T05:26:16.725Z,41.00
2018-05-27T05:28:44.116Z,38.80
2018-05-27T05:31:11.509Z,39.93
2018-05-27T05:33:38.907Z,38.23
2018-05-27T05:36:06.333Z,43.70
2018-05-27T05:38:34.952Z,38.40
2018-05-27T05:41:02.353Z,34.70
2018-05-27T05:43:29.709Z,41.70
2018-05-27T05:45:57.125Z,36.53
2018-05-27T05:48:24.507Z,36.67
2018-05-27T05:50:51.895Z,42.13
2018-05-27T05:53:19.317Z,38.20
2018-05-27T05:55:46.704Z,45.13
2018-05-27T05:58:14.071Z,37.03
2018-05-27T06:00:41.460Z,36.70
2018-05-27T06:03:08.852Z,35.57
2018-05-27T06:05:36.204Z,37.83
2018-05-27T06:08:03.597Z,39.97
2018-05-27T06:10:31.019Z,41.87
2018-05-27T06:12:58.448Z,41.10
2018-05-27T06:15:25.801Z,38.47
2018-05-27T06:17:53.185Z,40.40
2018-05-27T06:20:20.613Z,41.33
2018-05-27T06:22:48.010Z,38.33
2018-05-27T06:25:15.398Z,37.10
2018-05-27T06:27:42.784Z,36.83
2018-05-27T06:30:10.187Z,41.60
2018-05-27T06:32:37.603Z,41.50
2018-05-27T06:35:04.959Z,38.20
2018-05-27T06:37:32.352Z,39.77
2018-05-27T06:39:59.884Z,34.70
2018-05-27T06:42:27.372Z,33.80
2018-05-27T06:44:54.791Z,35.20
2018-05-27T06:47:22.224Z,35.40
2018-05-27T06:49:49.629Z,33.17
2018-05-27T06:52:17.093Z,37.33
2018-05-27T06:54:44.498Z,36.17
2018-05-27T06:57:11.892Z,34.33
2018-05-27T06:59:39.285Z,32.33
2018-05-27T07:02:06.685Z,35.50
2018-05-27T07:04:34.148Z,33.33
2018-05-27T07:07:01.494Z,32.63
2018-05-27T07:09:28.843Z,30.80
2018-05-27T07:11:56.252Z,29.53
2018-05-27T07:14:23.628Z,30.70
2018-05-27T07:16:51.040Z,24.40
2018-05-27T07:19:18.419Z,25.23
2018-05-27T07:21:45.835Z,25.87
2018-05-27T07:24:13.249Z,22.70
2018-05-27T07:26:40.595Z,20.13
2018-05-27T07:29:07.988Z,22.07
2018-05-27T07:31:35.408Z,19.73
2018-05-27T07:34:02.772Z,21.77
2018-05-27T07:36:30.192Z,18.03
2018-05-27T07:38:57.596Z,16.70
2018-05-27T07:41:24.996Z,22.80
2018-05-27T07:43:52.432Z,18.50
2018-05-27T07:46:19.811Z,18.07
2018-05-27T07:48:47.270Z,17.93
2018-05-27T07:51:14.718Z,19.83
2018-05-27T07:53:42.168Z,22.60
2018-05-27T07:56:09.531Z,18.00
2018-05-27T07:58:37.004Z,14.80
2018-05-27T08:01:04.409Z,17.00
2018-05-27T08:03:31.858Z,15.40
2018-05-27T08:06:00.242Z,16.90
2018-05-27T08:08:27.606Z,15.60
2018-05-27T08:10:55.102Z,16.10
2018-05-27T08:13:22.498Z,16.37
2018-05-27T08:15:49.989Z,16.40
2018-05-27T08:18:17.343Z,19.13
2018-05-27T08:20:44.766Z,16.43
2018-05-27T08:23:12.158Z,21.30
2018-05-27T08:25:39.540Z,16.80
2018-05-27T08:28:06.927Z,16.20
2018-05-27T08:30:34.347Z,18.10
2018-05-27T08:33:01.703Z,16.63
2018-05-27T08:35:29.087Z,18.00
2018-05-27T08:37:56.480Z,21.77
2018-05-27T08:40:23.859Z,16.70
2018-05-27T08:42:51.277Z,15.63
2018-05-27T08:45:18.696Z,16.83
2018-05-27T08:47:46.100Z,19.27
2018-05-27T08:50:13.518Z,18.63
2018-05-27T08:52:40.879Z,15.70
2018-05-27T08:55:08.296Z,15.63
2018-05-27T08:57:35.722Z,14.17
2018-05-27T09:00:03.693Z,14.00
2018-05-27T09:02:31.084Z,14.20
2018-05-27T09:04:58.471Z,14.70
2018-05-27T09:07:25.843Z,17.00
2018-05-27T09:09:53.223Z,14.40
2018-05-27T09:12:20.584Z,14.90
2018-05-27T09:14:47.967Z,13.80
2018-05-27T09:17:15.388Z,19.30
2018-05-27T09:19:42.862Z,14.13
2018-05-27T09:22:10.258Z,14.50
2018-05-27T09:24:37.643Z,16.57
2018-05-27T09:27:05.061Z,14.20
2018-05-27T09:29:32.447Z,15.93
2018-05-27T09:31:59.876Z,16.03
2018-05-27T09:34:27.302Z,15.30
2018-05-27T09:36:54.664Z,13.80
2018-05-27T09:39:22.078Z,13.67
2018-05-27T09:41:49.484Z,13.53
2018-05-27T09:44:16.936Z,14.40
2018-05-27T09:46:44.345Z,14.00
2018-05-27T09:49:11.797Z,13.37
2018-05-27T09:51:39.265Z,13.23
2018-05-27T09:54:06.688Z,12.10
2018-05-27T09:56:34.123Z,13.90
2018-05-27T09:59:01.524Z,17.43
2018-05-27T10:01:28.905Z,14.93
2018-05-27T10:03:56.311Z,13.83
2018-05-27T10:06:23.737Z,14.23
2018-05-27T10:08:51.156Z,14.70
2018-05-27T10:11:18.523Z,13.67
2018-05-27T10:13:45.930Z,13.40
2018-05-27T10:16:13.368Z,13.33
2018-05-27T10:18:40.777Z,14.23
2018-05-27T10:21:08.167Z,17.67
2018-05-27T10:23:35.551Z,16.00
2018-05-27T10:26:03.061Z,14.40
2018-05-27T10:28:30.514Z,14.33
2018-05-27T10:30:57.938Z,15.53
2018-05-27T10:33:25.334Z,14.90
2018-05-27T10:35:52.717Z,12.33
2018-05-27T10:38:20.121Z,12.50
2018-05-27T10:40:47.477Z,13.10
2018-05-27T10:43:14.974Z,13.80
2018-05-27T10:45:42.426Z,14.30
2018-05-27T10:48:09.822Z,13.33
2018-05-27T10:50:37.187Z,13.13
2018-05-27T10:53:04.600Z,13.33
2018-05-27T10:55:31.965Z,13.43
2018-05-27T10:57:59.352Z,13.10
2018-05-27T11:00:26.746Z,12.87
2018-05-27T11:02:54.173Z,13.17
2018-05-27T11:05:21.624Z,13.63
2018-05-27T11:07:49.224Z,12.73
2018-05-27T11:10:16.645Z,17.47
2018-05-27T11:12:44.051Z,13.10
2018-05-27T11:15:11.474Z,12.60
2018-05-27T11:17:38.867Z,12.90
2018-05-27T11:20:06.347Z,13.80
2018-05-27T11:22:33.749Z,18.73
2018-05-27T11:25:01.157Z,15.10
2018-05-27T11:27:28.539Z,12.27
2018-05-27T11:29:55.968Z,12.77
2018-05-27T11:32:23.333Z,11.60
2018-05-27T11:34:50.768Z,17.20
2018-05-27T11:37:18.197Z,12.57
2018-05-27T11:39:45.630Z,12.70
2018-05-27T11:42:13.061Z,12.07
2018-05-27T11:44:40.484Z,11.57
2018-05-27T11:47:07.925Z,12.27
2018-05-27T11:49:35.385Z,12.07
2018-05-27T11:52:02.835Z,13.23
2018-05-27T11:54:30.250Z,11.60
2018-05-27T11:56:57.692Z,11.80
2018-05-27T11:59:25.083Z,12.30
2018-05-27T12:01:52.438Z,13.40
2018-05-27T12:04:19.908Z,11.83
2018-05-27T12:06:47.295Z,11.80
2018-05-27T12:09:14.841Z,12.20
2018-05-27T12:11:42.212Z,8.40
2018-05-27T12:14:09.566Z,8.40
2018-05-27T12:16:37.037Z,8.80
2018-05-27T12:19:04.477Z,8.37
2018-05-27T12:21:31.814Z,8.97
2018-05-27T12:23:59.229Z,15.57
2018-05-27T12:26:26.633Z,16.40
2018-05-27T12:28:54.083Z,14.60
2018-05-27T12:31:21.484Z,8.73
2018-05-27T12:33:48.858Z,9.73
2018-05-27T12:36:16.285Z,11.70
2018-05-27T12:38:43.678Z,7.90
2018-05-27T12:41:11.058Z,8.17
2018-05-27T12:43:38.616Z,9.77
2018-05-27T12:46:06.067Z,11.23
2018-05-27T12:48:33.472Z,10.13
2018-05-27T12:51:00.911Z,11.73
2018-05-27T12:53:28.320Z,9.37
2018-05-27T12:55:55.738Z,10.30
2018-05-27T12:58:23.196Z,9.97
2018-05-27T13:00:50.588Z,9.10
2018-05-27T13:03:17.966Z,9.70
2018-05-27T13:05:45.376Z,9.67
2018-05-27T13:08:12.810Z,10.13
2018-05-27T13:10:40.212Z,9.10
2018-05-27T13:13:07.559Z,9.30
2018-05-27T13:15:34.980Z,8.70
2018-05-27T13:18:02.343Z,8.50
2018-05-27T13:20:29.744Z,9.70
2018-05-27T13:22:57.337Z,8.43
2018-05-27T13:25:24.721Z,8.13
2018-05-27T13:27:52.185Z,7.20
2018-05-27T13:30:19.696Z,6.93
2018-05-27T13:32:47.112Z,6.13
2018-05-27T13:35:14.595Z,6.40
2018-05-27T13:37:41.979Z,6.10
2018-05-27T13:40:09.353Z,7.07
2018-05-27T13:42:36.767Z,6.67
2018-05-27T13:45:04.241Z,6.40
2018-05-27T13:47:31.574Z,7.40
2018-05-27T13:49:58.921Z,7.87
2018-05-27T13:52:26.314Z,7.33
2018-05-27T13:54:53.696Z,7.93
2018-05-27T13:57:21.105Z,6.60
2018-05-27T13:59:48.624Z,6.97
2018-05-27T14:02:16.035Z,6.83
2018-05-27T14:04:43.455Z,6.53
2018-05-27T14:07:10.871Z,6.63
2018-05-27T14:09:38.266Z,7.93
2018-05-27T14:12:05.691Z,7.23
2018-05-27T14:14:33.196Z,6.60
2018-05-27T14:17:00.656Z,8.07
2018-05-27T14:19:28.101Z,7.30
2018-05-27T14:21:55.516Z,7.83
2018-05-27T14:24:22.906Z,9.00
2018-05-27T14:26:50.586Z,13.03
2018-05-27T14:29:18.017Z,8.83
2018-05-27T14:31:45.441Z,8.77
2018-05-27T14:34:12.824Z,8.80
2018-05-27T14:36:40.214Z,9.60
2018-05-27T14:39:07.656Z,9.90
2018-05-27T14:41:35.044Z,9.60
2018-05-27T14:44:02.456Z,11.70
2018-05-27T14:46:29.908Z,10.80
2018-05-27T14:48:57.250Z,10.80
2018-05-27T14:51:24.641Z,11.60
2018-05-27T14:53:52.215Z,11.50
2018-05-27T14:56:19.846Z,11.17
2018-05-27T14:58:47.260Z,12.23
2018-05-27T15:01:14.690Z,13.10
2018-05-27T15:03:42.116Z,11.60
2018-05-27T15:06:09.610Z,11.50
2018-05-27T15:08:37.024Z,11.70
2018-05-27T15:11:04.449Z,10.17
2018-05-27T15:13:31.832Z,10.60
2018-05-27T15:15:59.216Z,10.10
2018-05-27T15:18:26.703Z,10.73
2018-05-27T15:20:54.082Z,11.47
2018-05-27T15:23:21.473Z,10.60
2018-05-27T15:25:48.891Z,11.47
2018-05-27T15:28:16.416Z,10.90
2018-05-27T15:30:43.797Z,10.73
2018-05-27T15:33:11.216Z,13.03
2018-05-27T15:35:38.576Z,10.83
2018-05-27T15:38:06.913Z,10.47
2018-05-27T15:40:34.290Z,11.40
2018-05-27T15:43:01.652Z,11.17
2018-05-27T15:45:29.145Z,11.03
2018-05-27T15:47:56.586Z,11.50
2018-05-27T15:50:23.991Z,10.50
2018-05-27T15:52:51.508Z,10.40
2018-05-27T15:55:18.932Z,11.33
2018-05-27T15:57:46.320Z,11.23
2018-05-27T16:00:13.706Z,11.80
2018-05-27T16:02:41.133Z,12.70
2018-05-27T16:05:08.537Z,11.10
2018-05-27T16:07:35.967Z,10.97
2018-05-27T16:10:03.381Z,10.40
2018-05-27T16:12:30.815Z,10.87
2018-05-27T16:14:58.245Z,10.47
2018-05-27T16:17:25.658Z,10.93
2018-05-27T16:19:53.058Z,11.97
2018-05-27T16:22:20.465Z,11.00
2018-05-27T16:24:47.898Z,12.33
2018-05-27T16:27:15.256Z,10.60
2018-05-27T16:29:42.681Z,10.43
2018-05-27T16:32:10.036Z,10.20
2018-05-27T16:34:37.793Z,10.50
2018-05-27T16:37:05.156Z,10.60
2018-05-27T16:39:32.537Z,10.00
2018-05-27T16:42:00.113Z,13.80
2018-05-27T16:44:27.570Z,9.30
2018-05-27T16:46:55.035Z,9.20
2018-05-27T16:49:22.512Z,8.80
2018-05-27T16:51:49.914Z,8.70
2018-05-27T16:54:17.284Z,8.70
2018-05-27T16:56:44.630Z,8.63
2018-05-27T16:59:12.014Z,8.93
2018-05-27T17:01:39.396Z,8.83
2018-05-27T17:04:06.770Z,9.90
2018-05-27T17:06:34.134Z,9.73
2018-05-27T17:09:01.567Z,8.20
2018-05-27T17:11:28.957Z,7.90
2018-05-27T17:13:56.360Z,10.90
2018-05-27T17:16:23.772Z,9.00
2018-05-27T17:18:51.215Z,8.27
2018-05-27T17:21:18.642Z,7.70
2018-05-27T17:23:46.033Z,8.03
2018-05-27T17:26:13.629Z,8.37
2018-05-27T17:28:41.116Z,10.53
2018-05-27T17:31:08.519Z,9.00
2018-05-27T17:33:35.891Z,7.60
2018-05-27T17:36:03.408Z,9.63
2018-05-27T17:38:30.784Z,9.37
2018-05-27T17:40:58.173Z,9.33
2018-05-27T17:43:25.520Z,10.87
2018-05-27T17:45:53.004Z,10.27
2018-05-27T17:48:20.397Z,10.80
2018-05-27T17:50:47.790Z,11.37
2018-05-27T17:53:15.188Z,11.53
2018-05-27T17:55:42.570Z,12.67
2018-05-27T17:58:09.979Z,11.77
2018-05-27T18:00:37.443Z,12.37
2018-05-27T18:03:04.907Z,13.33
2018-05-27T18:05:32.354Z,14.20
2018-05-27T18:07:59.780Z,13.70
2018-05-27T18:10:27.169Z,15.40
2018-05-27T18:12:54.564Z,14.40
2018-05-27T18:15:21.980Z,13.63
2018-05-27T18:17:49.694Z,13.27
2018-05-27T18:20:17.106Z,14.57
2018-05-27T18:22:44.518Z,11.90
2018-05-27T18:25:11.945Z,11.80
2018-05-27T18:27:39.341Z,13.50
2018-05-27T18:30:06.787Z,14.10
2018-05-27T18:32:34.234Z,13.30
2018-05-27T18:35:01.632Z,13.07
2018-05-27T18:37:29.075Z,12.80
2018-05-27T18:39:56.550Z,13.63
2018-05-27T18:42:24.080Z,13.90
2018-05-27T18:44:51.573Z,14.77
2018-05-27T18:47:18.969Z,24.17
2018-05-27T18:49:46.362Z,14.80
2018-05-27T18:52:13.770Z,14.53
2018-05-27T18:54:41.168Z,14.53
2018-05-27T18:57:08.571Z,14.73
2018-05-27T18:59:35.962Z,14.30
2018-05-27T19:02:03.405Z,14.80
2018-05-27T19:04:30.776Z,15.03
2018-05-27T19:06:58.173Z,14.57
2018-05-27T19:09:25.578Z,14.20
2018-05-27T19:11:52.950Z,16.93
2018-05-27T19:14:20.339Z,16.00
2018-05-27T19:16:47.705Z,19.43
2018-05-27T19:19:15.132Z,17.70
2018-05-27T19:21:42.572Z,21.40
2018-05-27T19:24:10.038Z,15.40
2018-05-27T19:26:38.207Z,16.47
2018-05-27T19:29:05.590Z,15.90
2018-05-27T19:31:33.045Z,18.20
2018-05-27T19:34:00.506Z,18.60
2018-05-27T19:36:27.908Z,18.83
2018-05-27T19:38:55.275Z,16.20
2018-05-27T19:41:23.016Z,15.07
2018-05-27T19:43:50.764Z,14.23
2018-05-27T19:46:18.146Z,16.17
2018-05-27T19:48:46.528Z,16.20
2018-05-27T19:51:14.342Z,14.10
2018-05-27T19:53:47.486Z,16.53
2018-05-27T19:56:14.919Z,16.20
2018-05-27T19:58:42.449Z,14.87
2018-05-27T20:01:09.977Z,16.63
2018-05-27T20:03:37.422Z,14.87
2018-05-27T20:06:04.892Z,14.97
2018-05-27T20:08:32.841Z,16.13
2018-05-27T20:11:03.748Z,15.50
2018-05-27T20:13:31.171Z,16.37
2018-05-27T20:15:58.915Z,19.23
2018-05-27T20:18:26.306Z,14.40
2018-05-27T20:20:54.279Z,13.40
2018-05-27T20:23:21.673Z,14.30
2018-05-27T20:25:50.027Z,15.67
2018-05-27T20:28:17.455Z,17.97
2018-05-27T20:30:44.887Z,13.17
2018-05-27T20:33:12.378Z,13.23
2018-05-27T20:35:39.939Z,14.40
2018-05-27T20:38:07.356Z,16.17
2018-05-27T20:40:34.797Z,15.90
2018-05-27T20:43:02.381Z,13.57
2018-05-27T20:45:29.857Z,15.53
2018-05-27T20:47:57.360Z,14.83
2018-05-27T20:50:24.823Z,14.83
2018-05-27T20:52:52.270Z,14.60
2018-05-27T20:55:19.623Z,14.90
2018-05-27T20:57:47.020Z,13.43
2018-05-27T21:00:14.414Z,15.53
2018-05-27T21:02:41.794Z,13.93
2018-05-27T21:05:09.193Z,16.20
2018-05-27T21:07:36.609Z,15.17
2018-05-27T21:10:04.119Z,13.50
2018-05-27T21:12:31.581Z,14.07
2018-05-27T21:14:58.982Z,14.10
2018-05-27T21:17:26.382Z,15.23
2018-05-27T21:19:53.796Z,15.43
2018-05-27T21:22:21.158Z,14.07
2018-05-27T21:24:49.169Z,22.10
2018-05-27T21:27:17.440Z,15.57
2018-05-27T21:29:44.851Z,16.43
2018-05-27T21:32:12.205Z,16.13
2018-05-27T21:34:39.588Z,19.10
2018-05-27T21:37:07.064Z,14.50
2018-05-27T21:39:34.504Z,16.37
2018-05-27T21:42:02.169Z,17.90
2018-05-27T21:44:29.600Z,23.07
2018-05-27T21:46:56.954Z,17.97
2018-05-27T21:49:24.354Z,21.27
2018-05-27T21:51:51.790Z,15.27
2018-05-27T21:54:19.175Z,16.33
2018-05-27T21:56:46.571Z,16.30
2018-05-27T21:59:13.938Z,17.10
2018-05-27T22:01:41.516Z,17.13
2018-05-27T22:04:08.900Z,18.27
2018-05-27T22:06:36.263Z,17.23
2018-05-27T22:09:03.684Z,16.97
2018-05-27T22:11:31.104Z,19.60
2018-05-27T22:13:58.488Z,20.53
2018-05-27T22:16:25.941Z,21.67
2018-05-27T22:18:53.361Z,18.53
2018-05-27T22:21:20.864Z,19.10
2018-05-27T22:23:48.279Z,19.80
2018-05-27T22:26:15.713Z,21.90
2018-05-27T22:28:43.072Z,17.60
2018-05-27T22:31:10.453Z,20.80
2018-05-27T22:33:37.879Z,18.93
2018-05-27T22:36:05.368Z,20.23
2018-05-27T22:38:32.761Z,18.53
2018-05-27T22:41:00.175Z,17.40
2018-05-27T22:43:27.585Z,22.23
2018-05-27T22:45:55.036Z,22.13
2018-05-27T22:48:22.430Z,18.63
2018-05-27T22:50:49.821Z,20.33
2018-05-27T22:53:17.228Z,23.43
2018-05-27T22:55:44.621Z,23.63
2018-05-27T22:58:12.020Z,21.00
2018-05-27T23:00:39.448Z,23.57
2018-05-27T23:03:06.877Z,20.50
2018-05-27T23:05:34.888Z,22.57
2018-05-27T23:08:02.264Z,21.80
2018-05-27T23:10:29.651Z,21.93
2018-05-27T23:12:57.053Z,20.30
2018-05-27T23:15:24.538Z,23.83
2018-05-27T23:17:51.965Z,23.97
2018-05-27T23:20:19.368Z,23.70
2018-05-27T23:22:46.831Z,23.20
2018-05-27T23:25:14.244Z,21.03
2018-05-27T23:27:51.547Z,23.77
2018-05-27T23:30:18.989Z,25.07
2018-05-27T23:32:46.392Z,22.73
2018-05-27T23:35:13.752Z,23.03
2018-05-27T23:37:41.180Z,24.67
2018-05-27T23:40:08.548Z,24.87
2018-05-27T23:42:35.965Z,23.80
2018-05-27T23:45:03.352Z,22.17
2018-05-27T23:47:30.779Z,24.80
2018-05-27T23:49:58.221Z,26.90
2018-05-27T23:52:25.597Z,24.70
2018-05-27T23:54:52.946Z,24.17
2018-05-27T23:57:20.327Z,26.80
2018-05-27T23:59:47.750Z,28.40
